sensor_id;sensor_type;location;lat;lon;timestamp;temperature;humidity
11454;DHT22;5783;55.174;61.310;2023-11-19T00:00:56;26.00;17.30
11454;DHT22;5783;55.174;61.310;2023-11-19T00:03:24;26.00;17.30
11454;DHT22;5783;55.174;61.310;2023-11-19T00:05:53;26.00;17.30
11454;DHT22;5783;55.174;61.310;2023-11-19T00:08:21;26.00;17.40
11454;DHT22;5783;55.174;61.310;2023-11-19T00:10:50;26.00;17.40
11454;DHT22;5783;55.174;61.310;2023-11-19T00:13:18;26.10;17.30
11454;DHT22;5783;55.174;61.310;2023-11-19T00:15:47;26.00;17.20
11454;DHT22;5783;55.174;61.310;2023-11-19T00:18:15;26.00;17.30
11454;DHT22;5783;55.174;61.310;2023-11-19T00:20:43;26.00;17.30
11454;DHT22;5783;55.174;61.310;2023-11-19T00:23:12;26.00;17.40
11454;DHT22;5783;55.174;61.310;2023-11-19T00:25:40;26.00;17.40
11454;DHT22;5783;55.174;61.310;2023-11-19T00:28:08;26.10;17.50
11454;DHT22;5783;55.174;61.310;2023-11-19T00:30:36;26.10;17.40
11454;DHT22;5783;55.174;61.310;2023-11-19T00:33:06;26.10;17.50
11454;DHT22;5783;55.174;61.310;2023-11-19T00:35:34;26.10;17.50
11454;DHT22;5783;55.174;61.310;2023-11-19T00:38:03;26.10;17.50
11454;DHT22;5783;55.174;61.310;2023-11-19T00:40:31;26.20;17.60
11454;DHT22;5783;55.174;61.310;2023-11-19T00:42:59;26.20;17.70
11454;DHT22;5783;55.174;61.310;2023-11-19T00:45:28;26.20;17.50
11454;DHT22;5783;55.174;61.310;2023-11-19T00:47:56;26.20;17.50
11454;DHT22;5783;55.174;61.310;2023-11-19T00:50:25;26.20;17.40
11454;DHT22;5783;55.174;61.310;2023-11-19T00:52:53;26.20;17.40
11454;DHT22;5783;55.174;61.310;2023-11-19T00:55:21;26.30;17.30
11454;DHT22;5783;55.174;61.310;2023-11-19T00:57:49;26.20;17.30
11454;DHT22;5783;55.174;61.310;2023-11-19T01:00:18;26.20;17.40
11454;DHT22;5783;55.174;61.310;2023-11-19T01:02:47;26.20;17.40
11454;DHT22;5783;55.174;61.310;2023-11-19T01:05:16;26.20;17.30
11454;DHT22;5783;55.174;61.310;2023-11-19T01:07:45;26.20;17.20
11454;DHT22;5783;55.174;61.310;2023-11-19T01:10:14;26.10;17.20
11454;DHT22;5783;55.174;61.310;2023-11-19T01:13:02;26.10;17.20
11454;DHT22;5783;55.174;61.310;2023-11-19T01:15:33;26.10;17.20
11454;DHT22;5783;55.174;61.310;2023-11-19T01:18:01;26.10;17.20
11454;DHT22;5783;55.174;61.310;2023-11-19T01:20:30;26.10;17.20
11454;DHT22;5783;55.174;61.310;2023-11-19T01:23:00;26.10;17.10
11454;DHT22;5783;55.174;61.310;2023-11-19T01:25:28;26.00;17.20
11454;DHT22;5783;55.174;61.310;2023-11-19T01:27:56;26.10;17.30
11454;DHT22;5783;55.174;61.310;2023-11-19T01:30:25;26.10;17.30
11454;DHT22;5783;55.174;61.310;2023-11-19T01:32:53;26.10;17.30
11454;DHT22;5783;55.174;61.310;2023-11-19T01:35:21;26.10;17.20
11454;DHT22;5783;55.174;61.310;2023-11-19T01:37:49;26.10;17.30
11454;DHT22;5783;55.174;61.310;2023-11-19T01:40:20;26.10;17.20
11454;DHT22;5783;55.174;61.310;2023-11-19T01:42:48;26.10;17.30
11454;DHT22;5783;55.174;61.310;2023-11-19T01:45:47;26.10;17.20
11454;DHT22;5783;55.174;61.310;2023-11-19T01:47:46;26.10;17.30
11454;DHT22;5783;55.174;61.310;2023-11-19T01:50:15;26.10;17.40
11454;DHT22;5783;55.174;61.310;2023-11-19T01:52:45;26.10;17.30
11454;DHT22;5783;55.174;61.310;2023-11-19T01:55:14;26.10;17.30
11454;DHT22;5783;55.174;61.310;2023-11-19T01:57:42;26.00;17.40
11454;DHT22;5783;55.174;61.310;2023-11-19T02:00:10;26.00;17.40
11454;DHT22;5783;55.174;61.310;2023-11-19T02:02:40;26.10;17.40
11454;DHT22;5783;55.174;61.310;2023-11-19T02:05:09;26.10;17.40
11454;DHT22;5783;55.174;61.310;2023-11-19T02:07:39;26.10;17.50
11454;DHT22;5783;55.174;61.310;2023-11-19T02:10:07;26.20;17.50
11454;DHT22;5783;55.174;61.310;2023-11-19T02:12:38;26.20;17.40
11454;DHT22;5783;55.174;61.310;2023-11-19T02:15:08;26.20;17.60
11454;DHT22;5783;55.174;61.310;2023-11-19T02:17:36;26.20;17.40
11454;DHT22;5783;55.174;61.310;2023-11-19T02:20:05;26.20;17.40
11454;DHT22;5783;55.174;61.310;2023-11-19T02:22:36;26.20;17.50
11454;DHT22;5783;55.174;61.310;2023-11-19T02:25:06;26.20;17.40
11454;DHT22;5783;55.174;61.310;2023-11-19T02:30:22;26.20;17.50
11454;DHT22;5783;55.174;61.310;2023-11-19T02:33:10;26.20;17.60
11454;DHT22;5783;55.174;61.310;2023-11-19T02:35:38;26.20;17.40
11454;DHT22;5783;55.174;61.310;2023-11-19T02:38:07;26.20;17.40
11454;DHT22;5783;55.174;61.310;2023-11-19T02:40:35;26.20;17.40
11454;DHT22;5783;55.174;61.310;2023-11-19T02:43:03;26.20;17.30
11454;DHT22;5783;55.174;61.310;2023-11-19T02:45:31;26.20;17.30
11454;DHT22;5783;55.174;61.310;2023-11-19T02:47:59;26.20;17.40
11454;DHT22;5783;55.174;61.310;2023-11-19T02:50:27;26.30;17.50
11454;DHT22;5783;55.174;61.310;2023-11-19T02:52:57;26.30;17.30
11454;DHT22;5783;55.174;61.310;2023-11-19T02:55:25;26.30;17.30
11454;DHT22;5783;55.174;61.310;2023-11-19T02:57:55;26.20;17.30
11454;DHT22;5783;55.174;61.310;2023-11-19T03:00:24;26.20;17.70
11454;DHT22;5783;55.174;61.310;2023-11-19T03:03:12;26.20;17.40
11454;DHT22;5783;55.174;61.310;2023-11-19T03:06:00;26.20;17.40
11454;DHT22;5783;55.174;61.310;2023-11-19T03:08:30;26.20;17.40
11454;DHT22;5783;55.174;61.310;2023-11-19T03:10:58;26.20;17.40
11454;DHT22;5783;55.174;61.310;2023-11-19T03:13:26;26.20;17.50
11454;DHT22;5783;55.174;61.310;2023-11-19T03:15:55;26.20;17.40
11454;DHT22;5783;55.174;61.310;2023-11-19T03:18:23;26.30;17.50
11454;DHT22;5783;55.174;61.310;2023-11-19T03:20:51;26.30;17.40
11454;DHT22;5783;55.174;61.310;2023-11-19T03:23:19;26.30;17.40
11454;DHT22;5783;55.174;61.310;2023-11-19T03:25:49;26.30;17.30
11454;DHT22;5783;55.174;61.310;2023-11-19T03:28:17;26.30;17.30
11454;DHT22;5783;55.174;61.310;2023-11-19T03:30:45;26.30;17.30
11454;DHT22;5783;55.174;61.310;2023-11-19T03:33:13;26.30;17.40
11454;DHT22;5783;55.174;61.310;2023-11-19T03:35:41;26.30;17.40
11454;DHT22;5783;55.174;61.310;2023-11-19T03:38:09;26.30;17.40
11454;DHT22;5783;55.174;61.310;2023-11-19T03:40:38;26.30;17.40
11454;DHT22;5783;55.174;61.310;2023-11-19T03:43:06;26.30;17.30
11454;DHT22;5783;55.174;61.310;2023-11-19T03:45:35;26.30;17.50
11454;DHT22;5783;55.174;61.310;2023-11-19T03:48:03;26.30;17.50
11454;DHT22;5783;55.174;61.310;2023-11-19T03:50:32;26.30;17.50
11454;DHT22;5783;55.174;61.310;2023-11-19T03:53:00;26.30;17.40
11454;DHT22;5783;55.174;61.310;2023-11-19T03:55:30;26.30;17.50
11454;DHT22;5783;55.174;61.310;2023-11-19T03:57:59;26.30;17.50
11454;DHT22;5783;55.174;61.310;2023-11-19T04:00:27;26.30;17.50
11454;DHT22;5783;55.174;61.310;2023-11-19T04:02:55;26.30;17.40
11454;DHT22;5783;55.174;61.310;2023-11-19T04:05:24;26.30;17.50
11454;DHT22;5783;55.174;61.310;2023-11-19T04:07:52;26.40;17.50
11454;DHT22;5783;55.174;61.310;2023-11-19T04:10:20;26.40;17.50
11454;DHT22;5783;55.174;61.310;2023-11-19T04:12:48;26.40;17.40
11454;DHT22;5783;55.174;61.310;2023-11-19T04:15:17;26.40;17.50
11454;DHT22;5783;55.174;61.310;2023-11-19T04:17:45;26.40;17.40
11454;DHT22;5783;55.174;61.310;2023-11-19T04:20:13;26.50;17.50
11454;DHT22;5783;55.174;61.310;2023-11-19T04:22:41;26.40;17.40
11454;DHT22;5783;55.174;61.310;2023-11-19T04:25:10;26.50;17.40
11454;DHT22;5783;55.174;61.310;2023-11-19T04:27:38;26.50;17.40
11454;DHT22;5783;55.174;61.310;2023-11-19T04:30:06;26.50;17.30
11454;DHT22;5783;55.174;61.310;2023-11-19T04:32:36;26.50;17.50
11454;DHT22;5783;55.174;61.310;2023-11-19T04:35:05;26.50;17.40
11454;DHT22;5783;55.174;61.310;2023-11-19T04:37:34;26.50;17.40
11454;DHT22;5783;55.174;61.310;2023-11-19T04:40:02;26.40;17.40
11454;DHT22;5783;55.174;61.310;2023-11-19T04:42:30;26.40;17.30
11454;DHT22;5783;55.174;61.310;2023-11-19T04:44:59;26.40;17.30
11454;DHT22;5783;55.174;61.310;2023-11-19T04:47:27;26.40;17.90
11454;DHT22;5783;55.174;61.310;2023-11-19T04:49:55;26.40;18.90
11454;DHT22;5783;55.174;61.310;2023-11-19T04:52:23;26.40;18.50
11454;DHT22;5783;55.174;61.310;2023-11-19T04:54:51;26.30;18.60
11454;DHT22;5783;55.174;61.310;2023-11-19T04:57:20;26.20;18.70
11454;DHT22;5783;55.174;61.310;2023-11-19T04:59:48;26.20;18.90
11454;DHT22;5783;55.174;61.310;2023-11-19T05:02:16;26.30;18.80
11454;DHT22;5783;55.174;61.310;2023-11-19T05:04:44;26.20;18.80
11454;DHT22;5783;55.174;61.310;2023-11-19T05:07:14;26.30;16.50
11454;DHT22;5783;55.174;61.310;2023-11-19T05:09:43;26.10;15.90
11454;DHT22;5783;55.174;61.310;2023-11-19T05:12:12;25.90;15.50
11454;DHT22;5783;55.174;61.310;2023-11-19T05:14:41;25.50;15.30
11454;DHT22;5783;55.174;61.310;2023-11-19T05:17:12;25.00;15.30
11454;DHT22;5783;55.174;61.310;2023-11-19T05:19:41;24.60;15.50
11454;DHT22;5783;55.174;61.310;2023-11-19T05:22:11;24.40;15.90
11454;DHT22;5783;55.174;61.310;2023-11-19T05:24:40;24.20;16.00
11454;DHT22;5783;55.174;61.310;2023-11-19T05:27:09;23.90;16.10
11454;DHT22;5783;55.174;61.310;2023-11-19T05:29:39;23.70;16.20
11454;DHT22;5783;55.174;61.310;2023-11-19T05:32:11;23.30;16.10
11454;DHT22;5783;55.174;61.310;2023-11-19T05:34:40;23.00;16.40
11454;DHT22;5783;55.174;61.310;2023-11-19T05:37:09;22.80;16.60
11454;DHT22;5783;55.174;61.310;2023-11-19T05:39:38;22.50;16.60
11454;DHT22;5783;55.174;61.310;2023-11-19T05:42:07;22.20;16.70
11454;DHT22;5783;55.174;61.310;2023-11-19T05:44:37;21.90;17.10
11454;DHT22;5783;55.174;61.310;2023-11-19T05:47:06;22.20;17.50
11454;DHT22;5783;55.174;61.310;2023-11-19T05:52:04;23.00;18.10
11454;DHT22;5783;55.174;61.310;2023-11-19T05:54:34;23.20;18.60
11454;DHT22;5783;55.174;61.310;2023-11-19T05:57:06;23.50;18.80
11454;DHT22;5783;55.174;61.310;2023-11-19T05:59:54;23.80;18.80
11454;DHT22;5783;55.174;61.310;2023-11-19T06:02:25;24.20;19.00
11454;DHT22;5783;55.174;61.310;2023-11-19T06:04:55;24.40;18.80
11454;DHT22;5783;55.174;61.310;2023-11-19T06:07:24;24.70;18.80
11454;DHT22;5783;55.174;61.310;2023-11-19T06:09:53;25.00;18.60
11454;DHT22;5783;55.174;61.310;2023-11-19T06:12:22;25.20;18.60
11454;DHT22;5783;55.174;61.310;2023-11-19T06:14:51;25.40;18.40
11454;DHT22;5783;55.174;61.310;2023-11-19T06:17:20;25.20;18.40
11454;DHT22;5783;55.174;61.310;2023-11-19T06:19:50;25.30;18.60
11454;DHT22;5783;55.174;61.310;2023-11-19T06:22:19;25.40;18.60
11454;DHT22;5783;55.174;61.310;2023-11-19T06:24:48;25.60;18.80
11454;DHT22;5783;55.174;61.310;2023-11-19T06:27:17;25.90;19.20
11454;DHT22;5783;55.174;61.310;2023-11-19T06:29:46;26.10;19.00
11454;DHT22;5783;55.174;61.310;2023-11-19T06:32:16;26.30;18.90
11454;DHT22;5783;55.174;61.310;2023-11-19T06:34:45;26.50;19.00
11454;DHT22;5783;55.174;61.310;2023-11-19T06:37:14;26.60;18.70
11454;DHT22;5783;55.174;61.310;2023-11-19T06:39:43;26.50;18.40
11454;DHT22;5783;55.174;61.310;2023-11-19T06:42:13;26.50;18.30
11454;DHT22;5783;55.174;61.310;2023-11-19T06:44:42;26.20;18.30
11454;DHT22;5783;55.174;61.310;2023-11-19T06:47:11;25.90;18.80
11454;DHT22;5783;55.174;61.310;2023-11-19T06:49:43;25.90;18.80
11454;DHT22;5783;55.174;61.310;2023-11-19T06:52:11;25.60;19.20
11454;DHT22;5783;55.174;61.310;2023-11-19T06:54:40;25.50;18.90
11454;DHT22;5783;55.174;61.310;2023-11-19T06:57:09;25.30;19.00
11454;DHT22;5783;55.174;61.310;2023-11-19T06:59:39;25.20;18.80
11454;DHT22;5783;55.174;61.310;2023-11-19T07:02:08;25.10;19.00
11454;DHT22;5783;55.174;61.310;2023-11-19T07:04:37;25.10;18.90
11454;DHT22;5783;55.174;61.310;2023-11-19T07:07:06;25.00;19.10
11454;DHT22;5783;55.174;61.310;2023-11-19T07:09:36;25.00;19.10
11454;DHT22;5783;55.174;61.310;2023-11-19T07:12:06;24.80;19.30
11454;DHT22;5783;55.174;61.310;2023-11-19T07:14:35;24.90;19.50
11454;DHT22;5783;55.174;61.310;2023-11-19T07:17:04;25.10;19.20
11454;DHT22;5783;55.174;61.310;2023-11-19T07:19:35;25.10;18.70
11454;DHT22;5783;55.174;61.310;2023-11-19T07:22:05;25.10;19.30
11454;DHT22;5783;55.174;61.310;2023-11-19T07:24:34;25.30;19.00
11454;DHT22;5783;55.174;61.310;2023-11-19T07:27:04;25.50;19.40
11454;DHT22;5783;55.174;61.310;2023-11-19T07:29:33;25.70;18.80
11454;DHT22;5783;55.174;61.310;2023-11-19T07:32:02;25.60;18.50
11454;DHT22;5783;55.174;61.310;2023-11-19T07:34:31;25.60;18.80
11454;DHT22;5783;55.174;61.310;2023-11-19T07:36:59;25.60;19.20
11454;DHT22;5783;55.174;61.310;2023-11-19T07:39:29;25.80;19.30
11454;DHT22;5783;55.174;61.310;2023-11-19T07:41:59;26.00;19.50
11454;DHT22;5783;55.174;61.310;2023-11-19T07:44:28;26.20;19.80
11454;DHT22;5783;55.174;61.310;2023-11-19T07:46:56;26.30;19.10
11454;DHT22;5783;55.174;61.310;2023-11-19T07:49:25;26.30;19.40
11454;DHT22;5783;55.174;61.310;2023-11-19T07:51:54;26.40;19.80
11454;DHT22;5783;55.174;61.310;2023-11-19T07:54:22;26.50;19.00
11454;DHT22;5783;55.174;61.310;2023-11-19T07:56:50;26.10;19.10
11454;DHT22;5783;55.174;61.310;2023-11-19T07:59:18;26.10;19.80
11454;DHT22;5783;55.174;61.310;2023-11-19T08:01:46;26.40;19.50
11454;DHT22;5783;55.174;61.310;2023-11-19T08:04:15;26.70;19.00
11454;DHT22;5783;55.174;61.310;2023-11-19T08:06:43;26.80;18.90
11454;DHT22;5783;55.174;61.310;2023-11-19T08:09:12;26.90;18.70
11454;DHT22;5783;55.174;61.310;2023-11-19T08:11:40;26.80;19.50
11454;DHT22;5783;55.174;61.310;2023-11-19T08:14:09;26.80;19.00
11454;DHT22;5783;55.174;61.310;2023-11-19T08:16:38;26.50;18.90
11454;DHT22;5783;55.174;61.310;2023-11-19T08:19:07;26.20;19.20
11454;DHT22;5783;55.174;61.310;2023-11-19T08:21:36;26.30;19.40
11454;DHT22;5783;55.174;61.310;2023-11-19T08:24:05;26.30;19.00
11454;DHT22;5783;55.174;61.310;2023-11-19T08:26:33;26.10;19.40
11454;DHT22;5783;55.174;61.310;2023-11-19T08:29:02;26.20;19.50
11454;DHT22;5783;55.174;61.310;2023-11-19T08:31:30;26.50;19.30
11454;DHT22;5783;55.174;61.310;2023-11-19T08:33:58;26.70;18.90
11454;DHT22;5783;55.174;61.310;2023-11-19T08:36:26;26.80;18.80
11454;DHT22;5783;55.174;61.310;2023-11-19T08:38:54;26.70;18.50
11454;DHT22;5783;55.174;61.310;2023-11-19T08:41:22;26.60;19.20
11454;DHT22;5783;55.174;61.310;2023-11-19T08:43:51;26.70;19.00
11454;DHT22;5783;55.174;61.310;2023-11-19T08:46:19;27.00;19.20
11454;DHT22;5783;55.174;61.310;2023-11-19T08:48:47;27.20;18.90
11454;DHT22;5783;55.174;61.310;2023-11-19T08:51:16;27.40;18.60
11454;DHT22;5783;55.174;61.310;2023-11-19T08:53:44;27.30;18.60
11454;DHT22;5783;55.174;61.310;2023-11-19T08:56:12;27.40;19.10
11454;DHT22;5783;55.174;61.310;2023-11-19T08:58:40;27.60;19.20
11454;DHT22;5783;55.174;61.310;2023-11-19T09:01:09;27.70;18.70
11454;DHT22;5783;55.174;61.310;2023-11-19T09:03:37;27.80;18.80
11454;DHT22;5783;55.174;61.310;2023-11-19T09:06:05;27.70;18.10
11454;DHT22;5783;55.174;61.310;2023-11-19T09:08:33;27.40;18.50
11454;DHT22;5783;55.174;61.310;2023-11-19T09:11:06;27.30;18.30
11454;DHT22;5783;55.174;61.310;2023-11-19T09:13:31;27.00;18.40
11454;DHT22;5783;55.174;61.310;2023-11-19T09:16:00;26.70;18.70
11454;DHT22;5783;55.174;61.310;2023-11-19T09:18:48;26.70;19.20
11454;DHT22;5783;55.174;61.310;2023-11-19T09:21:16;26.90;19.10
11454;DHT22;5783;55.174;61.310;2023-11-19T09:23:44;27.10;19.20
11454;DHT22;5783;55.174;61.310;2023-11-19T09:26:13;27.10;18.80
11454;DHT22;5783;55.174;61.310;2023-11-19T09:28:41;27.10;19.20
11454;DHT22;5783;55.174;61.310;2023-11-19T09:33:58;27.60;19.00
11454;DHT22;5783;55.174;61.310;2023-11-19T09:36:26;27.60;18.80
11454;DHT22;5783;55.174;61.310;2023-11-19T09:38:54;27.50;18.90
11454;DHT22;5783;55.174;61.310;2023-11-19T09:41:23;27.20;18.90
11454;DHT22;5783;55.174;61.310;2023-11-19T09:43:53;26.80;19.30
11454;DHT22;5783;55.174;61.310;2023-11-19T09:46:21;26.90;19.30
11454;DHT22;5783;55.174;61.310;2023-11-19T09:49:09;27.00;19.30
11454;DHT22;5783;55.174;61.310;2023-11-19T09:51:39;26.70;19.10
11454;DHT22;5783;55.174;61.310;2023-11-19T09:54:08;26.50;19.50
11454;DHT22;5783;55.174;61.310;2023-11-19T09:56:38;26.50;19.70
11454;DHT22;5783;55.174;61.310;2023-11-19T09:59:07;26.60;19.40
11454;DHT22;5783;55.174;61.310;2023-11-19T10:01:37;26.60;19.10
11454;DHT22;5783;55.174;61.310;2023-11-19T10:04:06;26.70;19.20
11454;DHT22;5783;55.174;61.310;2023-11-19T10:06:34;26.80;18.80
11454;DHT22;5783;55.174;61.310;2023-11-19T10:09:02;26.80;18.80
11454;DHT22;5783;55.174;61.310;2023-11-19T10:11:31;26.70;18.80
11454;DHT22;5783;55.174;61.310;2023-11-19T10:13:59;26.80;18.90
11454;DHT22;5783;55.174;61.310;2023-11-19T10:16:28;26.90;18.80
11454;DHT22;5783;55.174;61.310;2023-11-19T10:22:06;26.90;18.40
11454;DHT22;5783;55.174;61.310;2023-11-19T10:24:34;26.80;18.50
11454;DHT22;5783;55.174;61.310;2023-11-19T10:27:06;26.70;18.10
11454;DHT22;5783;55.174;61.310;2023-11-19T10:32:22;26.80;18.40
11454;DHT22;5783;55.174;61.310;2023-11-19T10:34:50;26.80;18.30
11454;DHT22;5783;55.174;61.310;2023-11-19T10:37:27;26.80;18.60
11454;DHT22;5783;55.174;61.310;2023-11-19T10:42:37;27.30;18.10
11454;DHT22;5783;55.174;61.310;2023-11-19T10:45:16;27.20;18.10
11454;DHT22;5783;55.174;61.310;2023-11-19T10:47:36;27.10;17.70
11454;DHT22;5783;55.174;61.310;2023-11-19T10:50:06;26.90;17.80
11454;DHT22;5783;55.174;61.310;2023-11-19T10:52:34;26.60;17.90
11454;DHT22;5783;55.174;61.310;2023-11-19T10:55:03;26.40;18.40
11454;DHT22;5783;55.174;61.310;2023-11-19T10:57:33;26.40;18.60
11454;DHT22;5783;55.174;61.310;2023-11-19T11:00:03;26.60;19.00
11454;DHT22;5783;55.174;61.310;2023-11-19T11:02:34;26.80;18.60
11454;DHT22;5783;55.174;61.310;2023-11-19T11:05:04;27.10;18.10
11454;DHT22;5783;55.174;61.310;2023-11-19T11:07:33;27.10;17.90
11454;DHT22;5783;55.174;61.310;2023-11-19T11:10:03;26.90;17.70
11454;DHT22;5783;55.174;61.310;2023-11-19T11:12:34;26.60;17.80
11454;DHT22;5783;55.174;61.310;2023-11-19T11:15:04;26.50;18.20
11454;DHT22;5783;55.174;61.310;2023-11-19T11:17:33;26.40;17.70
11454;DHT22;5783;55.174;61.310;2023-11-19T11:20:03;26.20;18.10
11454;DHT22;5783;55.174;61.310;2023-11-19T11:36:17;26.70;18.40
11454;DHT22;5783;55.174;61.310;2023-11-19T11:38:47;27.00;18.30
11454;DHT22;5783;55.174;61.310;2023-11-19T11:44:03;27.40;17.80
11454;DHT22;5783;55.174;61.310;2023-11-19T11:54:39;27.00;17.40
11454;DHT22;5783;55.174;61.310;2023-11-19T11:59:56;26.70;18.00
11454;DHT22;5783;55.174;61.310;2023-11-19T12:02:25;26.80;17.80
11454;DHT22;5783;55.174;61.310;2023-11-19T12:04:54;27.00;17.70
11454;DHT22;5783;55.174;61.310;2023-11-19T12:07:23;27.00;17.50
11454;DHT22;5783;55.174;61.310;2023-11-19T12:09:52;27.00;17.80
11454;DHT22;5783;55.174;61.310;2023-11-19T12:12:21;27.20;17.70
11454;DHT22;5783;55.174;61.310;2023-11-19T12:17:41;27.40;17.80
11454;DHT22;5783;55.174;61.310;2023-11-19T12:20:30;27.60;17.80
11454;DHT22;5783;55.174;61.310;2023-11-19T12:23:02;27.70;17.70
11454;DHT22;5783;55.174;61.310;2023-11-19T12:25:31;27.80;17.60
11454;DHT22;5783;55.174;61.310;2023-11-19T12:28:01;27.70;17.40
11454;DHT22;5783;55.174;61.310;2023-11-19T12:30:30;27.70;17.70
11454;DHT22;5783;55.174;61.310;2023-11-19T12:32:58;27.80;17.70
11454;DHT22;5783;55.174;61.310;2023-11-19T12:35:26;27.80;17.40
11454;DHT22;5783;55.174;61.310;2023-11-19T12:37:55;27.80;17.70
11454;DHT22;5783;55.174;61.310;2023-11-19T12:40:23;27.80;17.60
11454;DHT22;5783;55.174;61.310;2023-11-19T12:42:55;27.80;17.20
11454;DHT22;5783;55.174;61.310;2023-11-19T12:45:23;27.60;17.40
11454;DHT22;5783;55.174;61.310;2023-11-19T12:53:29;27.00;17.70
11454;DHT22;5783;55.174;61.310;2023-11-19T12:56:07;27.10;17.90
11454;DHT22;5783;55.174;61.310;2023-11-19T12:58:29;27.20;17.70
11454;DHT22;5783;55.174;61.310;2023-11-19T13:03:46;27.40;17.70
11454;DHT22;5783;55.174;61.310;2023-11-19T13:06:34;27.40;17.80
11454;DHT22;5783;55.174;61.310;2023-11-19T13:09:02;27.50;17.70
11454;DHT22;5783;55.174;61.310;2023-11-19T13:11:31;27.40;17.50
11454;DHT22;5783;55.174;61.310;2023-11-19T13:14:00;27.40;17.70
11454;DHT22;5783;55.174;61.310;2023-11-19T13:16:48;27.40;17.80
11454;DHT22;5783;55.174;61.310;2023-11-19T13:19:16;27.50;17.70
11454;DHT22;5783;55.174;61.310;2023-11-19T13:21:45;27.50;17.70
11454;DHT22;5783;55.174;61.310;2023-11-19T13:24:14;27.40;17.50
11454;DHT22;5783;55.174;61.310;2023-11-19T13:26:42;27.20;17.30
11454;DHT22;5783;55.174;61.310;2023-11-19T13:29:10;27.10;17.50
11454;DHT22;5783;55.174;61.310;2023-11-19T13:31:38;27.00;17.30
11454;DHT22;5783;55.174;61.310;2023-11-19T13:34:08;26.80;17.60
11454;DHT22;5783;55.174;61.310;2023-11-19T13:36:36;26.60;17.60
11454;DHT22;5783;55.174;61.310;2023-11-19T13:39:04;26.60;18.00
11454;DHT22;5783;55.174;61.310;2023-11-19T13:41:33;26.50;17.50
11454;DHT22;5783;55.174;61.310;2023-11-19T13:44:01;26.30;17.60
11454;DHT22;5783;55.174;61.310;2023-11-19T13:46:29;26.20;17.60
11454;DHT22;5783;55.174;61.310;2023-11-19T13:48:57;26.10;17.70
11454;DHT22;5783;55.174;61.310;2023-11-19T13:51:25;26.10;17.60
11454;DHT22;5783;55.174;61.310;2023-11-19T13:53:53;26.00;17.60
11454;DHT22;5783;55.174;61.310;2023-11-19T13:56:21;26.00;17.70
11454;DHT22;5783;55.174;61.310;2023-11-19T13:58:50;26.00;17.40
11454;DHT22;5783;55.174;61.310;2023-11-19T14:01:19;25.90;17.80
11454;DHT22;5783;55.174;61.310;2023-11-19T14:03:47;25.90;17.60
11454;DHT22;5783;55.174;61.310;2023-11-19T14:06:15;25.80;17.70
11454;DHT22;5783;55.174;61.310;2023-11-19T14:08:43;25.80;17.90
11454;DHT22;5783;55.174;61.310;2023-11-19T14:11:12;25.80;17.60
11454;DHT22;5783;55.174;61.310;2023-11-19T14:13:40;25.80;17.50
11454;DHT22;5783;55.174;61.310;2023-11-19T14:16:08;25.80;17.40
11454;DHT22;5783;55.174;61.310;2023-11-19T14:18:38;25.80;17.40
11454;DHT22;5783;55.174;61.310;2023-11-19T14:21:06;25.80;17.40
11454;DHT22;5783;55.174;61.310;2023-11-19T14:23:35;25.80;17.30
11454;DHT22;5783;55.174;61.310;2023-11-19T14:26:03;25.80;17.60
11454;DHT22;5783;55.174;61.310;2023-11-19T14:28:32;25.80;18.40
11454;DHT22;5783;55.174;61.310;2023-11-19T14:31:01;25.80;17.90
11454;DHT22;5783;55.174;61.310;2023-11-19T14:33:31;25.80;17.60
11454;DHT22;5783;55.174;61.310;2023-11-19T14:36:01;25.80;17.50
11454;DHT22;5783;55.174;61.310;2023-11-19T14:38:29;25.70;17.30
11454;DHT22;5783;55.174;61.310;2023-11-19T14:40:59;25.70;17.50
11454;DHT22;5783;55.174;61.310;2023-11-19T14:43:29;25.70;17.60
11454;DHT22;5783;55.174;61.310;2023-11-19T14:45:59;25.70;17.30
11454;DHT22;5783;55.174;61.310;2023-11-19T14:48:30;25.60;17.20
11454;DHT22;5783;55.174;61.310;2023-11-19T14:50:59;25.60;17.30
11454;DHT22;5783;55.174;61.310;2023-11-19T14:53:30;25.70;17.80
11454;DHT22;5783;55.174;61.310;2023-11-19T14:55:59;25.70;17.40
11454;DHT22;5783;55.174;61.310;2023-11-19T14:58:29;25.70;17.40
11454;DHT22;5783;55.174;61.310;2023-11-19T15:00:58;25.70;17.30
11454;DHT22;5783;55.174;61.310;2023-11-19T15:03:27;25.60;17.10
11454;DHT22;5783;55.174;61.310;2023-11-19T15:05:57;25.60;17.10
11454;DHT22;5783;55.174;61.310;2023-11-19T15:08:25;25.60;17.20
11454;DHT22;5783;55.174;61.310;2023-11-19T15:10:54;25.60;17.10
11454;DHT22;5783;55.174;61.310;2023-11-19T15:13:24;25.60;17.10
11454;DHT22;5783;55.174;61.310;2023-11-19T15:15:53;25.70;17.10
11454;DHT22;5783;55.174;61.310;2023-11-19T15:18:23;25.60;17.10
11454;DHT22;5783;55.174;61.310;2023-11-19T15:20:52;25.60;17.10
11454;DHT22;5783;55.174;61.310;2023-11-19T15:23:21;25.60;17.20
11454;DHT22;5783;55.174;61.310;2023-11-19T15:25:52;25.60;17.20
11454;DHT22;5783;55.174;61.310;2023-11-19T15:28:21;25.60;17.20
11454;DHT22;5783;55.174;61.310;2023-11-19T15:30:50;25.50;17.10
11454;DHT22;5783;55.174;61.310;2023-11-19T15:33:18;25.50;17.10
11454;DHT22;5783;55.174;61.310;2023-11-19T15:35:49;25.50;17.10
11454;DHT22;5783;55.174;61.310;2023-11-19T15:38:18;25.50;17.10
11454;DHT22;5783;55.174;61.310;2023-11-19T15:40:46;25.50;17.10
11454;DHT22;5783;55.174;61.310;2023-11-19T15:43:15;25.50;17.10
11454;DHT22;5783;55.174;61.310;2023-11-19T15:45:45;25.50;17.10
11454;DHT22;5783;55.174;61.310;2023-11-19T15:48:14;25.50;17.00
11454;DHT22;5783;55.174;61.310;2023-11-19T15:50:44;25.50;17.10
11454;DHT22;5783;55.174;61.310;2023-11-19T15:53:14;25.60;17.10
11454;DHT22;5783;55.174;61.310;2023-11-19T15:55:44;25.50;17.00
11454;DHT22;5783;55.174;61.310;2023-11-19T15:58:13;25.50;17.00
11454;DHT22;5783;55.174;61.310;2023-11-19T16:00:42;25.50;17.00
11454;DHT22;5783;55.174;61.310;2023-11-19T16:03:12;25.50;17.00
11454;DHT22;5783;55.174;61.310;2023-11-19T16:05:42;25.50;17.00
11454;DHT22;5783;55.174;61.310;2023-11-19T16:08:11;25.50;17.00
11454;DHT22;5783;55.174;61.310;2023-11-19T16:10:40;25.50;17.00
11454;DHT22;5783;55.174;61.310;2023-11-19T16:13:10;25.50;17.00
11454;DHT22;5783;55.174;61.310;2023-11-19T16:15:39;25.50;17.00
11454;DHT22;5783;55.174;61.310;2023-11-19T16:18:08;25.50;17.00
11454;DHT22;5783;55.174;61.310;2023-11-19T16:20:39;25.50;17.00
11454;DHT22;5783;55.174;61.310;2023-11-19T16:23:10;25.50;17.00
11454;DHT22;5783;55.174;61.310;2023-11-19T16:25:40;25.50;17.00
11454;DHT22;5783;55.174;61.310;2023-11-19T16:28:08;25.50;17.00
11454;DHT22;5783;55.174;61.310;2023-11-19T16:30:37;25.50;17.00
11454;DHT22;5783;55.174;61.310;2023-11-19T16:33:07;25.50;17.00
11454;DHT22;5783;55.174;61.310;2023-11-19T16:35:37;25.50;17.00
11454;DHT22;5783;55.174;61.310;2023-11-19T16:38:06;25.50;17.00